Terminal Aerodrome Forecast
Issued by NWS Paducah, KY

Home | Current Version | Previous Version | Text Only | Print | Product List | Glossary On
Versions: 1 2 3 4 5 6 7 8 9 10 11 12 13 14 15
000
FTUS43 KPAH 270500
TAFPAH
TAF
KPAH 270539Z 2706/2806 29007KT 6SM -RA BR OVC015
      TEMPO 2706/2709 4SM -SN BR OVC009
     FM270900 32009KT P6SM OVC020
     FM271500 33010KT P6SM BKN020
     FM271800 33009KT P6SM SCT020=

USA.gov is the U.S. government's official web portal to all federal, state and local government web resources and services.